Time;durP1;ratioP1;P1;durP2;ratioP2;P2;SDS_P1;SDS_P2;PMS_P1;PMS_P2;Temp;Humidity;BMP_temperature;BMP_pressure;BME280_temperature;BME280_humidity;BME280_pressure;Samples;Min_cycle;Max_cycle;Signal;HPM_P1;HPM_P2
2022/06/20 00:00:27;;;;;;;;;;;20.40;99.90;;;;;;4590333;19;19923;-33
2022/06/20 00:02:20;;;;;;;;;;;20.40;99.90;;;;;;4591477;19;19974;-35
2022/06/20 00:03:52;;;;;;;;;;;20.40;99.90;;;;;;4591765;19;20326;-34
2022/06/20 00:05:24;;;;;;;;;;;20.30;99.90;;;;;;4592166;19;19918;-33
2022/06/20 00:06:57;;;;;;;;;;;20.20;99.90;;;;;;4591909;19;20318;-32
2022/06/20 00:08:28;;;;;;;;;;;20.20;99.90;;;;;;4591467;19;19915;-32
2022/06/20 00:09:59;;;;;;;;;;;20.20;99.90;;;;;;4591900;19;19929;-34
2022/06/20 00:11:31;;;;;;;;;;;20.20;99.90;;;;;;4592256;19;19986;-33
2022/06/20 00:13:02;;;;;;;;;;;20.20;99.90;;;;;;4591150;19;19931;-32
2022/06/20 00:14:33;;;;;;;;;;;20.20;99.90;;;;;;4591192;19;19918;-34
2022/06/20 00:16:04;;;;;;;;;;;20.20;99.90;;;;;;4591518;19;19921;-32
2022/06/20 00:17:35;;;;;;;;;;;20.10;99.90;;;;;;4591707;19;19919;-31
2022/06/20 00:19:06;;;;;;;;;;;20.10;99.90;;;;;;4591278;19;19922;-33
2022/06/20 00:20:37;;;;;;;;;;;20.10;99.90;;;;;;4590897;19;19928;-34
2022/06/20 00:22:09;;;;;;;;;;;20.00;99.90;;;;;;4591547;19;19936;-39
2022/06/20 00:23:40;;;;;;;;;;;20.00;99.90;;;;;;4592036;19;19989;-32
2022/06/20 00:25:12;;;;;;;;;;;20.00;99.90;;;;;;4591160;19;19922;-32
2022/06/20 00:26:43;;;;;;;;;;;20.00;99.90;;;;;;4591551;19;19917;-32
2022/06/20 00:28:14;;;;;;;;;;;20.00;99.90;;;;;;4591225;19;19966;-33
2022/06/20 00:29:45;;;;;;;;;;;20.00;99.90;;;;;;4590242;19;19911;-32
2022/06/20 00:31:16;;;;;;;;;;;20.00;99.90;;;;;;4589945;19;19919;-32
2022/06/20 00:32:47;;;;;;;;;;;20.00;99.90;;;;;;4591079;19;20366;-32
2022/06/20 00:34:18;;;;;;;;;;;20.00;99.90;;;;;;4591325;19;20381;-37
2022/06/20 00:35:50;;;;;;;;;;;20.00;99.90;;;;;;4591475;19;19915;-36
2022/06/20 00:37:20;;;;;;;;;;;20.00;99.90;;;;;;4589871;19;19915;-33
2022/06/20 00:38:52;;;;;;;;;;;20.00;99.90;;;;;;4591169;19;19922;-36
2022/06/20 00:40:23;;;;;;;;;;;20.00;99.90;;;;;;4591128;19;19917;-32
2022/06/20 00:41:54;;;;;;;;;;;20.00;99.90;;;;;;4590944;19;20259;-32
2022/06/20 00:43:41;;;;;;;;;;;20.00;99.90;;;;;;4590082;19;20255;-36
2022/06/20 00:45:12;;;;;;;;;;;20.00;99.90;;;;;;4590069;19;19943;-34
2022/06/20 00:46:49;;;;;;;;;;;20.00;99.90;;;;;;4589895;19;19940;-34
2022/06/20 00:48:34;;;;;;;;;;;20.00;99.90;;;;;;4589958;19;19911;-32
2022/06/20 00:50:12;;;;;;;;;;;19.90;99.90;;;;;;4590574;19;20322;-37
2022/06/20 00:51:46;;;;;;;;;;;19.90;99.90;;;;;;4590091;19;19910;-34
2022/06/20 00:53:26;;;;;;;;;;;19.90;99.90;;;;;;4589686;19;19978;-33
2022/06/20 00:55:03;;;;;;;;;;;19.90;99.90;;;;;;4590569;19;19923;-34
2022/06/20 00:56:41;;;;;;;;;;;19.90;99.90;;;;;;4590569;19;20272;-34
2022/06/20 00:58:15;;;;;;;;;;;19.90;99.90;;;;;;4589745;19;19943;-33
2022/06/20 00:59:47;;;;;;;;;;;19.90;99.90;;;;;;4590342;19;19919;-34
2022/06/20 01:01:19;;;;;;;;;;;20.00;99.90;;;;;;4590467;19;19915;-32
2022/06/20 01:02:51;;;;;;;;;;;20.00;99.90;;;;;;4589350;19;19935;-34
2022/06/20 01:04:25;;;;;;;;;;;20.00;99.90;;;;;;4590146;19;20334;-33
2022/06/20 01:05:58;;;;;;;;;;;20.00;99.90;;;;;;4590753;19;19914;-36
2022/06/20 01:07:33;;;;;;;;;;;20.00;99.90;;;;;;4589617;19;20312;-32
2022/06/20 01:09:05;;;;;;;;;;;20.00;99.90;;;;;;4589383;19;19919;-32
2022/06/20 01:10:44;;;;;;;;;;;20.00;99.90;;;;;;4590973;19;19978;-35
2022/06/20 01:12:16;;;;;;;;;;;20.00;99.90;;;;;;4594573;19;20248;-32
2022/06/20 01:13:47;;;;;;;;;;;20.00;99.90;;;;;;4594027;19;20277;-34
2022/06/20 01:15:19;;;;;;;;;;;20.00;99.90;;;;;;4594610;19;19910;-33
2022/06/20 01:16:54;;;;;;;;;;;19.90;99.90;;;;;;4593940;19;19914;-33
2022/06/20 01:18:30;;;;;;;;;;;19.90;99.90;;;;;;4595009;19;19919;-34
2022/06/20 01:20:10;;;;;;;;;;;19.90;99.90;;;;;;4595957;19;19919;-33
2022/06/20 01:21:41;;;;;;;;;;;19.90;99.90;;;;;;4592885;19;20028;-36
2022/06/20 01:23:16;;;;;;;;;;;19.90;99.90;;;;;;4592982;19;20001;-34
2022/06/20 01:24:50;;;;;;;;;;;19.90;99.90;;;;;;4592994;19;20027;-36
2022/06/20 01:26:23;;;;;;;;;;;20.00;99.90;;;;;;4593062;19;19925;-34
2022/06/20 01:27:54;;;;;;;;;;;19.90;99.90;;;;;;4592863;19;20231;-37
2022/06/20 01:29:24;;;;;;;;;;;19.90;99.90;;;;;;4592864;19;19926;-32
2022/06/20 01:30:56;;;;;;;;;;;19.90;99.90;;;;;;4592673;19;19929;-32
2022/06/20 01:32:27;;;;;;;;;;;19.90;99.90;;;;;;4592784;19;19923;-37
2022/06/20 01:33:58;;;;;;;;;;;20.00;99.90;;;;;;4592649;19;20366;-35
2022/06/20 01:37:25;;;;;;;;;;;19.90;99.90;;;;;;4592448;19;19929;-36
2022/06/20 01:38:56;;;;;;;;;;;20.00;99.90;;;;;;4592484;19;19970;-34
2022/06/20 01:40:27;;;;;;;;;;;20.00;99.90;;;;;;4592098;19;19918;-37
2022/06/20 01:42:31;;;;;;;;;;;20.00;99.90;;;;;;4592531;19;20333;-34
2022/06/20 01:43:55;;;;;;;;;;;20.00;99.90;;;;;;4592354;19;19918;-31
2022/06/20 01:47:16;;;;;;;;;;;20.00;99.90;;;;;;4592646;19;19917;-32
2022/06/20 01:48:49;;;;;;;;;;;20.00;99.90;;;;;;4592479;19;20008;-32
2022/06/20 01:50:20;;;;;;;;;;;20.00;99.90;;;;;;4592143;19;19926;-39
2022/06/20 01:51:53;;;;;;;;;;;20.00;99.90;;;;;;4591279;19;20327;-32
2022/06/20 01:53:28;;;;;;;;;;;20.00;99.90;;;;;;4593220;19;19940;-32
2022/06/20 01:55:00;;;;;;;;;;;19.90;99.90;;;;;;4592851;19;19981;-35
2022/06/20 01:56:31;;;;;;;;;;;20.00;99.90;;;;;;4593032;19;19986;-37
2022/06/20 01:58:07;;;;;;;;;;;20.00;99.90;;;;;;4593727;19;20247;-32
2022/06/20 02:00:07;;;;;;;;;;;20.00;99.90;;;;;;4593707;19;19921;-34
2022/06/20 02:01:38;;;;;;;;;;;19.90;99.90;;;;;;4590707;19;19914;-32
2022/06/20 02:03:11;;;;;;;;;;;19.90;99.90;;;;;;4591823;19;20348;-32
2022/06/20 02:04:42;;;;;;;;;;;19.90;99.90;;;;;;4592174;19;19914;-36
2022/06/20 02:06:14;;;;;;;;;;;19.90;99.90;;;;;;4591686;19;19937;-37
2022/06/20 02:07:45;;;;;;;;;;;19.90;99.90;;;;;;4592484;19;20021;-35
2022/06/20 02:09:16;;;;;;;;;;;19.90;99.90;;;;;;4592085;19;19923;-36
2022/06/20 02:10:48;;;;;;;;;;;19.90;99.90;;;;;;4591870;19;19974;-32
2022/06/20 02:12:19;;;;;;;;;;;19.90;99.90;;;;;;4592174;19;19918;-32
2022/06/20 02:13:51;;;;;;;;;;;19.90;99.90;;;;;;4592112;19;19974;-32
2022/06/20 02:15:22;;;;;;;;;;;19.90;99.90;;;;;;4591811;19;19922;-32
2022/06/20 02:16:55;;;;;;;;;;;19.90;99.90;;;;;;4592250;19;19918;-32
2022/06/20 02:18:26;;;;;;;;;;;19.90;99.90;;;;;;4592064;19;19925;-32
2022/06/20 02:19:58;;;;;;;;;;;19.90;99.90;;;;;;4591951;19;19980;-34
2022/06/20 02:21:29;;;;;;;;;;;19.90;99.90;;;;;;4589848;19;19910;-33
2022/06/20 02:23:00;;;;;;;;;;;19.90;99.90;;;;;;4592113;19;19915;-36
2022/06/20 02:24:32;;;;;;;;;;;20.00;99.90;;;;;;4591588;19;19919;-36
2022/06/20 02:26:04;;;;;;;;;;;19.90;99.90;;;;;;4591283;19;19919;-36
2022/06/20 02:27:42;;;;;;;;;;;20.00;99.90;;;;;;4591531;19;19915;-37
2022/06/20 02:29:23;;;;;;;;;;;20.00;99.90;;;;;;4591331;19;20370;-37
2022/06/20 02:30:54;;;;;;;;;;;20.00;99.90;;;;;;4591761;19;19915;-33
2022/06/20 02:32:26;;;;;;;;;;;19.90;99.90;;;;;;4591182;19;19956;-35
2022/06/20 02:33:57;;;;;;;;;;;19.90;99.90;;;;;;4591047;19;19978;-32
2022/06/20 02:35:28;;;;;;;;;;;19.90;99.90;;;;;;4591363;19;20296;-33
2022/06/20 02:37:01;;;;;;;;;;;19.90;99.90;;;;;;4592040;19;20319;-34
2022/06/20 02:38:33;;;;;;;;;;;19.90;99.90;;;;;;4591170;19;19939;-32
2022/06/20 02:40:05;;;;;;;;;;;19.90;99.90;;;;;;4591087;19;20350;-34
2022/06/20 02:41:36;;;;;;;;;;;19.90;99.90;;;;;;4590084;19;19922;-37
2022/06/20 02:43:16;;;;;;;;;;;19.90;99.90;;;;;;4591773;19;19911;-32
2022/06/20 02:44:47;;;;;;;;;;;19.90;99.90;;;;;;4591337;19;19941;-33
2022/06/20 02:46:18;;;;;;;;;;;19.90;99.90;;;;;;4591182;19;19911;-32
2022/06/20 02:47:50;;;;;;;;;;;19.90;99.90;;;;;;4591328;19;19918;-32
2022/06/20 02:49:21;;;;;;;;;;;19.90;99.90;;;;;;4591509;19;19915;-32
2022/06/20 02:50:53;;;;;;;;;;;19.90;99.90;;;;;;4590093;19;19979;-35
2022/06/20 02:52:31;;;;;;;;;;;19.90;99.90;;;;;;4591170;19;20242;-33
2022/06/20 02:54:03;;;;;;;;;;;19.90;99.90;;;;;;4591416;19;19911;-35
2022/06/20 02:55:34;;;;;;;;;;;20.00;99.90;;;;;;4590314;19;19918;-35
2022/06/20 02:57:13;;;;;;;;;;;20.00;99.90;;;;;;4591879;19;19967;-34
2022/06/20 02:58:46;;;;;;;;;;;20.00;99.90;;;;;;4592683;19;19953;-35
2022/06/20 03:00:19;;;;;;;;;;;19.90;99.90;;;;;;4592242;19;19962;-36
2022/06/20 03:01:52;;;;;;;;;;;19.90;99.90;;;;;;4592867;19;19915;-33
2022/06/20 03:03:37;;;;;;;;;;;19.90;99.90;;;;;;4592943;19;20264;-33
2022/06/20 03:05:08;;;;;;;;;;;19.90;99.90;;;;;;4593076;19;19915;-36
2022/06/20 03:06:40;;;;;;;;;;;19.90;99.90;;;;;;4592156;19;19940;-35
2022/06/20 03:08:12;;;;;;;;;;;19.90;99.90;;;;;;4592962;19;19926;-34
2022/06/20 03:09:44;;;;;;;;;;;19.90;99.90;;;;;;4592614;19;19923;-33
2022/06/20 03:11:15;;;;;;;;;;;19.90;99.90;;;;;;4591611;19;19919;-32
2022/06/20 03:12:46;;;;;;;;;;;19.90;99.90;;;;;;4592339;19;20246;-32
2022/06/20 03:14:16;;;;;;;;;;;19.90;99.90;;;;;;4591919;19;19925;-34
2022/06/20 03:15:49;;;;;;;;;;;19.90;99.90;;;;;;4592207;19;19918;-32
2022/06/20 03:17:20;;;;;;;;;;;19.90;99.90;;;;;;4592768;19;19921;-33
2022/06/20 03:18:51;;;;;;;;;;;19.90;99.90;;;;;;4592939;19;19974;-34
2022/06/20 03:20:25;;;;;;;;;;;19.90;99.90;;;;;;4592915;19;20369;-32
2022/06/20 03:21:57;;;;;;;;;;;19.90;99.90;;;;;;4592648;19;19923;-31
2022/06/20 03:23:30;;;;;;;;;;;19.90;99.90;;;;;;4592771;19;19943;-33
2022/06/20 03:25:01;;;;;;;;;;;19.90;99.90;;;;;;4593447;19;20444;-36
2022/06/20 03:26:31;;;;;;;;;;;19.90;99.90;;;;;;4592440;19;19918;-34
2022/06/20 03:28:03;;;;;;;;;;;19.90;99.90;;;;;;4591252;19;19994;-32
2022/06/20 03:29:34;;;;;;;;;;;19.90;99.90;;;;;;4592381;19;19919;-37
2022/06/20 03:31:05;;;;;;;;;;;19.90;99.90;;;;;;4593050;19;20341;-36
2022/06/20 03:32:36;;;;;;;;;;;19.90;99.90;;;;;;4592240;19;19922;-35
2022/06/20 03:34:08;;;;;;;;;;;19.90;99.90;;;;;;4590925;19;19954;-32
2022/06/20 03:35:38;;;;;;;;;;;19.80;99.90;;;;;;4591586;19;19923;-33
2022/06/20 03:37:09;;;;;;;;;;;19.90;99.90;;;;;;4591664;19;19918;-34
2022/06/20 03:38:41;;;;;;;;;;;19.90;99.90;;;;;;4591777;19;19926;-33
2022/06/20 03:40:12;;;;;;;;;;;19.90;99.90;;;;;;4590930;19;19946;-34
2022/06/20 03:41:43;;;;;;;;;;;19.90;99.90;;;;;;4591822;19;19910;-34
2022/06/20 03:43:15;;;;;;;;;;;19.90;99.90;;;;;;4593633;19;19919;-36
2022/06/20 03:44:47;;;;;;;;;;;19.90;99.90;;;;;;4592317;19;20342;-31
2022/06/20 03:46:23;;;;;;;;;;;19.90;99.90;;;;;;4592954;19;19982;-33
2022/06/20 03:47:58;;;;;;;;;;;19.90;99.90;;;;;;4591186;19;19915;-32
2022/06/20 03:49:37;;;;;;;;;;;19.90;99.90;;;;;;4590418;19;19974;-33
2022/06/20 03:51:13;;;;;;;;;;;19.90;99.90;;;;;;4591075;19;19918;-32
2022/06/20 03:52:47;;;;;;;;;;;18.20;99.90;;;;;;4592133;19;20043;-31
2022/06/20 03:54:26;;;;;;;4.57;3.25;;;17.30;99.90;;;;;;4590003;19;19919;-35
2022/06/20 03:56:40;;;;;;;5.40;3.38;;;17.00;99.90;;;;;;4590998;19;19998;-33
2022/06/20 03:58:19;;;;;;;;;;;16.90;99.90;;;;;;4591804;19;20014;-32
2022/06/20 03:59:52;;;;;;;;;;;16.80;99.90;;;;;;4591327;19;20265;-36
2022/06/20 04:01:24;;;;;;;;;;;16.80;99.90;;;;;;4588349;19;19923;-35
2022/06/20 04:03:14;;;;;;;;;;;16.80;99.90;;;;;;4589359;19;19915;-32
2022/06/20 04:04:45;;;;;;;;;;;16.80;99.90;;;;;;4591110;19;19910;-34
2022/06/20 04:06:21;;;;;;;;;;;16.80;99.90;;;;;;4589488;19;19917;-33
2022/06/20 04:07:57;;;;;;;;;;;16.80;99.90;;;;;;4589523;19;19948;-36
2022/06/20 04:11:24;;;;;;;;;;;16.80;99.90;;;;;;4590387;19;20265;-32
2022/06/20 04:12:58;;;;;;;;;;;16.80;99.90;;;;;;4589692;19;19935;-34
2022/06/20 04:14:31;;;;;;;;;;;16.80;99.90;;;;;;4589176;19;19984;-35
2022/06/20 04:16:02;;;;;;;;;;;16.80;99.90;;;;;;4589534;19;19937;-32
2022/06/20 04:19:35;;;;;;;;;;;16.80;99.90;;;;;;4589703;19;19919;-31
2022/06/20 04:21:12;;;;;;;;;;;16.80;99.90;;;;;;4588851;19;19914;-32
2022/06/20 04:22:43;;;;;;;;;;;16.80;99.90;;;;;;4589891;19;20344;-34
2022/06/20 04:24:23;;;;;;;;;;;16.80;99.90;;;;;;4591508;19;19922;-31
2022/06/20 04:26:06;;;;;;;;;;;16.80;99.90;;;;;;4589419;19;19919;-35
2022/06/20 04:27:39;;;;;;;;;;;16.80;99.90;;;;;;4589326;19;19911;-34
2022/06/20 04:29:13;;;;;;;;;;;16.80;99.90;;;;;;4588978;19;20011;-35
2022/06/20 04:30:55;;;;;;;;;;;16.80;99.90;;;;;;4588856;19;19925;-35
2022/06/20 04:32:33;;;;;;;;;;;16.80;99.90;;;;;;4586791;19;19930;-35
2022/06/20 04:34:25;;;;;;;;;;;16.80;99.90;;;;;;4589963;19;19915;-33
2022/06/20 04:36:16;;;;;;;;;;;16.80;99.90;;;;;;4588903;19;20365;-32
2022/06/20 04:37:52;;;;;;;;;;;16.80;99.90;;;;;;4588581;19;20277;-31
2022/06/20 04:39:39;;;;;;;;;;;16.80;99.90;;;;;;4588687;19;19918;-35
2022/06/20 04:41:12;;;;;;;;;;;16.80;99.90;;;;;;4588010;19;19918;-33
2022/06/20 04:42:52;;;;;;;;;;;16.80;99.90;;;;;;4588816;19;19915;-31
2022/06/20 04:44:46;;;;;;;;;;;16.80;99.90;;;;;;4589322;19;19924;-33
2022/06/20 04:46:33;;;;;;;;;;;16.80;99.90;;;;;;4588264;19;19919;-33
2022/06/20 04:48:10;;;;;;;;;;;16.80;99.90;;;;;;4588902;19;19922;-31
2022/06/20 04:49:41;;;;;;;;;;;16.80;99.90;;;;;;4588839;19;20365;-32
2022/06/20 04:51:13;;;;;;;;;;;16.80;99.90;;;;;;4588470;19;19918;-36
2022/06/20 04:52:44;;;;;;;;;;;16.80;99.90;;;;;;4588654;19;20009;-32
2022/06/20 04:54:16;;;;;;;;;;;16.80;99.90;;;;;;4588823;19;19915;-34
2022/06/20 04:55:48;;;;;;;;;;;16.80;99.90;;;;;;4587215;19;19922;-31
2022/06/20 04:57:19;;;;;;;;;;;16.80;99.90;;;;;;4588342;19;19998;-33
2022/06/20 04:59:03;;;;;;;;;;;16.80;99.90;;;;;;4589337;19;20322;-36
2022/06/20 05:00:38;;;;;;;;;;;16.80;99.90;;;;;;4588597;19;19930;-32
2022/06/20 05:02:16;;;;;;;;;;;16.70;99.90;;;;;;4588487;19;19939;-37
2022/06/20 05:03:55;;;;;;;;;;;16.70;99.90;;;;;;4588586;19;19914;-35
2022/06/20 05:05:27;;;;;;;;;;;16.80;99.90;;;;;;4588717;19;19931;-32
2022/06/20 05:06:59;;;;;;;;;;;16.80;99.90;;;;;;4588751;19;19955;-33
2022/06/20 05:08:32;;;;;;;;;;;16.80;99.90;;;;;;4588194;19;20493;-35
2022/06/20 05:10:09;;;;;;;;;;;16.80;99.90;;;;;;4588355;19;19911;-34
2022/06/20 05:11:45;;;;;;;;;;;16.80;99.90;;;;;;4588401;19;20465;-35
2022/06/20 05:13:21;;;;;;;;;;;16.80;99.90;;;;;;4588569;19;19918;-36
2022/06/20 05:14:52;;;;;;;;;;;16.80;99.90;;;;;;4588469;19;19937;-31
2022/06/20 05:16:24;;;;;;;;;;;16.80;99.90;;;;;;4590214;19;19927;-32
2022/06/20 05:17:56;;;;;;;;;;;16.80;99.90;;;;;;4590951;19;19918;-32
2022/06/20 05:19:27;;;;;;;;;;;16.80;99.90;;;;;;4590903;19;20250;-35
2022/06/20 05:21:02;;;;;;;;;;;16.80;99.90;;;;;;4587377;19;19922;-33
2022/06/20 05:22:34;;;;;;;;;;;16.80;99.90;;;;;;4589219;19;19914;-34
2022/06/20 05:24:12;;;;;;;;;;;16.80;99.90;;;;;;4590131;19;20365;-32
2022/06/20 05:25:43;;;;;;;;;;;16.80;99.90;;;;;;4589337;19;20325;-31
2022/06/20 05:27:22;;;;;;;;;;;16.80;99.90;;;;;;4588956;19;19952;-33
2022/06/20 05:28:54;;;;;;;;;;;16.80;99.90;;;;;;4588914;19;19925;-35
2022/06/20 05:30:26;;;;;;;;;;;16.90;99.90;;;;;;4589189;19;19911;-33
2022/06/20 05:31:58;;;;;;;;;;;16.90;99.90;;;;;;4589099;19;19911;-34
2022/06/20 05:33:35;;;;;;;;;;;16.90;99.90;;;;;;4589792;19;19918;-33
2022/06/20 05:35:13;;;;;;;;;;;16.90;99.90;;;;;;4589498;19;19936;-34
2022/06/20 05:36:49;;;;;;;;;;;16.90;99.90;;;;;;4588936;19;19919;-32
2022/06/20 05:38:23;;;;;;;;;;;16.90;99.90;;;;;;4589005;19;20246;-35
2022/06/20 05:39:54;;;;;;;;;;;16.90;99.90;;;;;;4588909;19;19918;-32
2022/06/20 05:41:26;;;;;;;;;;;16.90;99.90;;;;;;4588610;19;19974;-41
2022/06/20 05:42:58;;;;;;;;;;;16.90;99.90;;;;;;4590199;19;19978;-34
2022/06/20 05:44:29;;;;;;;;;;;16.90;99.90;;;;;;4590714;19;19918;-31
2022/06/20 05:46:04;;;;;;;;;;;16.90;99.90;;;;;;4590214;19;19974;-34
2022/06/20 05:47:35;;;;;;;;;;;16.90;99.90;;;;;;4589226;19;19915;-35
2022/06/20 05:49:07;;;;;;;;;;;16.90;99.90;;;;;;4589857;19;19943;-35
2022/06/20 05:50:41;;;;;;;;;;;16.90;99.90;;;;;;4590587;19;19918;-33
2022/06/20 05:52:12;;;;;;;;;;;16.90;99.90;;;;;;4588206;19;20313;-34
2022/06/20 05:53:44;;;;;;;;;;;16.90;99.90;;;;;;4589338;19;19919;-35
2022/06/20 05:55:16;;;;;;;;;;;16.90;99.90;;;;;;4584935;19;19922;-35
2022/06/20 05:56:48;;;;;;;;;;;17.00;99.90;;;;;;4593670;19;19911;-36
2022/06/20 05:58:20;;;;;;;;;;;17.00;99.90;;;;;;4595288;19;19910;-34
2022/06/20 05:59:55;;;;;;;;;;;17.00;99.90;;;;;;4592776;19;19935;-32
2022/06/20 06:01:30;;;;;;;;;;;17.10;99.90;;;;;;4593186;19;19923;-34
2022/06/20 06:03:33;;;;;;;;;;;17.10;99.90;;;;;;4594487;19;19921;-33
2022/06/20 06:05:11;;;;;;;;;;;17.10;99.90;;;;;;4592016;19;19911;-32
2022/06/20 06:06:45;;;;;;;;;;;17.10;99.90;;;;;;4592157;19;20272;-31
2022/06/20 06:08:16;;;;;;;;;;;17.20;99.90;;;;;;4591821;19;19925;-32
2022/06/20 06:09:52;;;;;;;;;;;17.20;99.90;;;;;;4592225;19;20016;-33
2022/06/20 06:11:30;;;;;;;;;;;17.20;99.90;;;;;;4591873;19;20381;-33
2022/06/20 06:13:05;;;;;;;;;;;17.20;99.90;;;;;;4591782;19;19924;-31
2022/06/20 06:14:46;;;;;;;;;;;17.20;99.90;;;;;;4592006;19;20355;-32
2022/06/20 06:18:12;;;;;;;;;;;17.20;99.90;;;;;;4592205;19;19919;-34
2022/06/20 06:19:56;;;;;;;;;;;17.20;99.90;;;;;;4592120;19;19978;-35
2022/06/20 06:21:27;;;;;;;;;;;17.20;99.90;;;;;;4590446;19;19922;-31
2022/06/20 06:22:59;;;;;;;;;;;17.20;99.90;;;;;;4591835;19;19911;-33
2022/06/20 06:24:30;;;;;;;;;;;17.20;99.90;;;;;;4591976;19;19947;-34
2022/06/20 06:26:01;;;;;;;;;;;17.30;99.90;;;;;;4591267;19;19919;-32
2022/06/20 06:27:33;;;;;;;;;;;17.20;99.90;;;;;;4589524;19;19915;-34
2022/06/20 06:29:04;;;;;;;;;;;17.20;99.90;;;;;;4591099;19;20362;-32
2022/06/20 06:30:42;;;;;;;;;;;17.30;99.90;;;;;;4591412;19;20334;-33
2022/06/20 06:32:17;;;;;;;;;;;17.30;99.90;;;;;;4591653;19;19914;-32
2022/06/20 06:33:49;;;;;;;;;;;17.30;99.90;;;;;;4591268;19;19919;-33
2022/06/20 06:35:21;;;;;;;;;;;17.30;99.90;;;;;;4590998;19;19931;-31
2022/06/20 06:36:54;;;;;;;;;;;17.30;99.90;;;;;;4591004;19;20326;-32
2022/06/20 06:38:36;;;;;;;;;;;17.30;99.90;;;;;;4591184;19;19918;-36
2022/06/20 06:40:14;;;;;;;;;;;17.30;99.90;;;;;;4590870;19;19915;-33
2022/06/20 06:41:46;;;;;;;;;;;17.30;99.90;;;;;;4590596;19;19921;-35
2022/06/20 06:43:17;;;;;;;;;;;17.30;99.90;;;;;;4592854;19;19915;-35
2022/06/20 06:44:48;;;;;;;;;;;17.30;99.90;;;;;;4593239;19;19925;-34
2022/06/20 06:46:41;;;;;;;;;;;17.30;99.90;;;;;;4591343;19;19919;-34
2022/06/20 06:48:17;;;;;;;;;;;17.30;99.90;;;;;;4592095;19;20246;-35
2022/06/20 06:49:49;;;;;;;;;;;17.30;99.90;;;;;;4591257;19;19978;-33
2022/06/20 06:51:39;;;;;;;;;;;17.30;99.90;;;;;;4591101;19;19952;-35
2022/06/20 06:53:28;;;;;;;;;;;17.40;99.90;;;;;;4593297;19;19945;-36
2022/06/20 06:55:01;;;;;;;;;;;17.40;99.90;;;;;;4592182;19;19923;-33
2022/06/20 06:56:34;;;;;;;;;;;17.40;99.90;;;;;;4592825;19;19963;-38
2022/06/20 06:58:26;;;;;;;;;;;17.40;99.90;;;;;;4593110;19;19936;-35
2022/06/20 07:00:03;;;;;;;;;;;17.40;99.90;;;;;;4590641;19;19930;-31
2022/06/20 07:01:44;;;;;;;;;;;17.50;99.90;;;;;;4591925;19;19953;-32
2022/06/20 07:03:20;;;;;;;;;;;17.50;99.90;;;;;;4591229;19;19939;-33
2022/06/20 07:04:57;;;;;;;;;;;17.60;99.90;;;;;;4591348;19;19929;-33
2022/06/20 07:06:30;;;;;;;;;;;17.50;99.90;;;;;;4592078;19;19921;-35
2022/06/20 07:08:20;;;;;;;;;;;17.60;99.90;;;;;;4590280;19;20262;-36
2022/06/20 07:09:51;;;;;;;;;;;17.60;99.90;;;;;;4593169;19;19922;-32
2022/06/20 07:11:23;;;;;;;;;;;17.60;99.90;;;;;;4592489;19;19919;-36
2022/06/20 07:12:55;;;;;;;;;;;17.60;99.90;;;;;;4592808;19;19925;-33
2022/06/20 07:14:27;;;;;;;;;;;17.50;99.90;;;;;;4590271;19;19914;-36
2022/06/20 07:15:58;;;;;;;;;;;17.50;99.90;;;;;;4592466;19;19911;-35
2022/06/20 07:17:33;;;;;;;;;;;17.50;99.90;;;;;;4591485;19;19925;-38
2022/06/20 07:19:04;;;;;;;;;;;17.50;99.90;;;;;;4592145;19;19914;-34
2022/06/20 07:20:39;;;;;;;;;;;17.60;99.90;;;;;;4592989;19;19911;-32
2022/06/20 07:22:10;;;;;;;;;;;17.60;99.90;;;;;;4593169;19;19915;-32
2022/06/20 07:23:42;;;;;;;;;;;17.60;99.90;;;;;;4591386;19;19907;-32
2022/06/20 07:25:23;;;;;;;;;;;17.60;99.90;;;;;;4592030;19;20007;-32
2022/06/20 07:26:54;;;;;;;;;;;17.60;99.90;;;;;;4591127;19;20310;-33
2022/06/20 07:28:46;;;;;;;;;;;17.60;99.90;;;;;;4593641;19;19910;-32
2022/06/20 07:30:18;;;;;;;;;;;17.50;99.90;;;;;;4590977;19;19982;-34
2022/06/20 07:31:50;;;;;;;;;;;17.50;99.90;;;;;;4591352;19;19921;-33
2022/06/20 07:33:24;;;;;;;;;;;17.50;99.90;;;;;;4592184;19;19992;-32
2022/06/20 07:34:58;;;;;;;;;;;17.50;99.90;;;;;;4593311;19;19939;-31
2022/06/20 07:36:32;;;;;;;;;;;17.50;99.90;;;;;;4590947;19;19974;-34
2022/06/20 07:38:06;;;;;;;;;;;17.60;99.90;;;;;;4591203;19;19915;-31
2022/06/20 07:39:43;;;;;;;;;;;17.60;99.90;;;;;;4592308;19;19982;-31
2022/06/20 07:41:14;;;;;;;;;;;17.50;99.90;;;;;;4591774;19;20265;-32
2022/06/20 07:42:49;;;;;;;;;;;17.50;99.90;;;;;;4591814;19;19970;-33
2022/06/20 07:44:29;;;;;;;;;;;17.50;99.90;;;;;;4592112;19;19911;-37
2022/06/20 07:46:03;;;;;;;;;;;17.50;99.90;;;;;;4591179;19;19948;-33
2022/06/20 07:47:39;;;;;;;;;;;17.60;99.90;;;;;;4591508;19;19919;-32
2022/06/20 07:49:31;;;;;;;;;;;17.60;99.90;;;;;;4591950;19;19938;-34
2022/06/20 07:51:14;;;;;;;;;;;17.70;99.90;;;;;;4589263;19;19919;-34
2022/06/20 07:52:47;;;;;;;;;;;17.60;99.90;;;;;;4589471;19;20389;-33
2022/06/20 07:54:32;;;;;;;;;;;17.70;99.90;;;;;;4589818;19;19931;-32
2022/06/20 07:56:05;;;;;;;;;;;17.70;99.90;;;;;;4589946;19;19970;-31
2022/06/20 07:57:40;;;;;;;;;;;17.70;99.90;;;;;;4590228;19;19932;-34
2022/06/20 07:59:14;;;;;;;;;;;17.70;99.90;;;;;;4589637;19;19926;-34
2022/06/20 08:00:51;;;;;;;;;;;17.80;99.90;;;;;;4589283;19;19940;-32
2022/06/20 08:02:28;;;;;;;;;;;17.80;99.90;;;;;;4590009;19;19931;-33
2022/06/20 08:04:02;;;;;;;;;;;17.70;99.90;;;;;;4589997;19;19922;-32
2022/06/20 08:05:37;;;;;;;;;;;17.80;99.90;;;;;;4589033;19;19935;-32
2022/06/20 08:07:12;;;;;;;;;;;17.80;99.90;;;;;;4589530;19;19923;-31
2022/06/20 08:08:44;;;;;;;;;;;17.80;99.90;;;;;;4589622;19;19922;-33
2022/06/20 08:10:17;;;;;;;;;;;17.80;99.90;;;;;;4589448;19;19910;-31
2022/06/20 08:11:55;;;;;;;;;;;17.80;99.90;;;;;;4588939;19;19922;-33
2022/06/20 08:13:46;;;;;;;;;;;17.80;99.90;;;;;;4589368;19;19970;-32
2022/06/20 08:15:21;;;;;;;;;;;17.90;99.90;;;;;;4589315;19;19939;-33
2022/06/20 08:16:53;;;;;;;;;;;17.90;99.90;;;;;;4589839;19;20234;-32
2022/06/20 08:18:25;;;;;;;;;;;17.90;99.90;;;;;;4589826;19;19911;-33
2022/06/20 08:19:56;;;;;;;;;;;17.90;99.90;;;;;;4588341;19;19923;-32
2022/06/20 08:21:28;;;;;;;;;;;17.80;99.90;;;;;;4587773;19;19958;-31
2022/06/20 08:23:04;;;;;;;;;;;17.90;99.90;;;;;;4589474;19;20258;-33
2022/06/20 08:24:53;;;;;;;;;;;17.90;99.90;;;;;;4588813;19;19914;-33
2022/06/20 08:26:26;;;;;;;;;;;17.90;99.90;;;;;;4587293;19;19929;-33
2022/06/20 08:28:00;;;;;;;;;;;17.90;99.90;;;;;;4588980;19;20346;-32
2022/06/20 08:29:36;;;;;;;;;;;17.90;99.90;;;;;;4589993;19;19918;-32
2022/06/20 08:31:30;;;;;;;;;;;17.90;99.90;;;;;;4590601;19;20310;-32
2022/06/20 08:33:08;;;;;;;;;;;17.90;99.90;;;;;;4590967;19;19922;-31
2022/06/20 08:34:41;;;;;;;;;;;18.00;99.90;;;;;;4591137;19;19974;-32
2022/06/20 08:36:42;;;;;;;;;;;18.00;99.90;;;;;;4591182;19;19918;-31
2022/06/20 08:38:16;;;;;;;;;;;18.00;99.90;;;;;;4588709;19;20010;-34
2022/06/20 08:39:48;;;;;;;;;;;17.90;99.90;;;;;;4587772;19;19911;-32
2022/06/20 08:41:39;;;;;;;;;;;17.90;99.90;;;;;;4588583;19;19948;-32
2022/06/20 08:43:29;;;;;;;;;;;17.90;99.90;;;;;;4587859;19;20271;-31
2022/06/20 08:45:18;;;;;;;;;;;17.90;99.90;;;;;;4588551;19;20248;-34
2022/06/20 08:46:56;;;;;;;;;;;17.90;99.90;;;;;;4588690;19;20385;-34
2022/06/20 08:48:50;;;;;;;;;;;17.90;99.90;;;;;;4588619;19;20430;-33
2022/06/20 08:50:39;;;;;;;;;;;18.00;99.90;;;;;;4588432;19;19929;-35
2022/06/20 08:52:10;;;;;;;;;;;18.00;99.90;;;;;;4587761;19;19921;-31
2022/06/20 08:53:43;;;;;;;;;;;17.90;99.90;;;;;;4588700;19;19918;-31
2022/06/20 08:55:14;;;;;;;;;;;17.90;99.90;;;;;;4587399;19;19930;-31
2022/06/20 08:56:55;;;;;;;;;;;17.90;99.90;;;;;;4588559;19;19915;-31
2022/06/20 08:58:38;;;;;;;;;;;17.80;99.90;;;;;;4589365;19;19915;-32
2022/06/20 09:00:19;;;;;;;;;;;17.80;99.90;;;;;;4588585;19;19922;-32
2022/06/20 09:02:06;;;;;;;;;;;17.80;99.90;;;;;;4587182;19;19936;-31
2022/06/20 09:03:44;;;;;;;;;;;17.80;99.90;;;;;;4588449;19;19918;-33
2022/06/20 09:05:33;;;;;;;;;;;17.80;99.90;;;;;;4588563;19;19911;-32
2022/06/20 09:07:05;;;;;;;;;;;17.80;99.90;;;;;;4588621;19;19911;-31
2022/06/20 09:08:54;;;;;;;;;;;17.80;99.90;;;;;;4588983;19;19922;-32
2022/06/20 09:10:31;;;;;;;;;;;17.70;99.90;;;;;;4588224;19;19949;-33
2022/06/20 09:12:02;;;;;;;;;;;17.70;99.90;;;;;;4588299;19;20001;-34
2022/06/20 09:13:33;;;;;;;;;;;17.70;99.90;;;;;;4588511;19;19919;-32
2022/06/20 09:15:13;;;;;;;;;;;17.70;99.90;;;;;;4589681;19;19918;-31
2022/06/20 09:16:44;;;;;;;;;;;17.60;99.90;;;;;;4590306;19;19918;-32
2022/06/20 09:18:19;;;;;;;;;;;17.60;99.90;;;;;;4590242;19;19926;-34
2022/06/20 09:20:00;;;;;;;;;;;17.50;99.90;;;;;;4589998;19;20416;-34
2022/06/20 09:21:34;;;;;;;;;;;17.50;99.90;;;;;;4589442;19;19910;-32
2022/06/20 09:23:23;;;;;;;;;;;17.50;99.90;;;;;;4589725;19;19911;-35